sensor_id;sensor_type;location;lat;lon;timestamp;pressure;altitude;pressure_sealevel;temperature;humidity
67987;BME280;54767;53.800;15.956;2023-08-30T00:02:16;99296.58;;;14.24;89.03
67987;BME280;54767;53.800;15.956;2023-08-30T00:04:58;99295.27;;;14.20;88.94
67987;BME280;54767;53.800;15.956;2023-08-30T00:09:52;99299.05;;;14.17;88.93
67987;BME280;54767;53.800;15.956;2023-08-30T00:12:19;99295.91;;;14.16;89.08
67987;BME280;54767;53.800;15.956;2023-08-30T00:14:45;99297.52;;;14.15;89.26
67987;BME280;54767;53.800;15.956;2023-08-30T00:17:12;99301.98;;;14.13;89.26
67987;BME280;54767;53.800;15.956;2023-08-30T00:19:39;99308.36;;;14.11;89.43
67987;BME280;54767;53.800;15.956;2023-08-30T00:22:06;99318.77;;;14.10;89.22
67987;BME280;54767;53.800;15.956;2023-08-30T00:24:35;99321.95;;;14.10;89.37
67987;BME280;54767;53.800;15.956;2023-08-30T00:27:03;99319.65;;;14.10;89.55
67987;BME280;54767;53.800;15.956;2023-08-30T00:29:30;99313.54;;;14.09;89.56
67987;BME280;54767;53.800;15.956;2023-08-30T00:31:57;99313.36;;;14.08;89.61
67987;BME280;54767;53.800;15.956;2023-08-30T00:34:24;99318.98;;;14.08;89.57
67987;BME280;54767;53.800;15.956;2023-08-30T00:36:51;99319.89;;;14.08;89.69
67987;BME280;54767;53.800;15.956;2023-08-30T00:39:18;99321.62;;;14.09;89.62
67987;BME280;54767;53.800;15.956;2023-08-30T00:41:45;99314.55;;;14.11;89.61
67987;BME280;54767;53.800;15.956;2023-08-30T00:44:11;99319.96;;;14.12;89.57
67987;BME280;54767;53.800;15.956;2023-08-30T00:46:38;99319.39;;;14.13;89.68
67987;BME280;54767;53.800;15.956;2023-08-30T00:49:05;99322.36;;;14.14;89.61
67987;BME280;54767;53.800;15.956;2023-08-30T00:51:33;99320.23;;;14.15;89.66
67987;BME280;54767;53.800;15.956;2023-08-30T00:54:00;99314.91;;;14.16;89.65
67987;BME280;54767;53.800;15.956;2023-08-30T00:56:27;99319.46;;;14.17;89.69
67987;BME280;54767;53.800;15.956;2023-08-30T00:58:54;99317.67;;;14.19;89.62
67987;BME280;54767;53.800;15.956;2023-08-30T01:01:22;99316.08;;;14.19;89.61
67987;BME280;54767;53.800;15.956;2023-08-30T01:03:49;99314.85;;;14.18;89.50
67987;BME280;54767;53.800;15.956;2023-08-30T01:06:16;99323.25;;;14.20;89.51
67987;BME280;54767;53.800;15.956;2023-08-30T01:08:43;99325.02;;;14.19;89.70
67987;BME280;54767;53.800;15.956;2023-08-30T01:14:04;99322.08;;;14.18;89.48
67987;BME280;54767;53.800;15.956;2023-08-30T01:16:32;99321.48;;;14.20;89.59
67987;BME280;54767;53.800;15.956;2023-08-30T01:19:03;99317.60;;;14.27;89.69
67987;BME280;54767;53.800;15.956;2023-08-30T01:24:32;99315.02;;;14.32;89.36
67987;BME280;54767;53.800;15.956;2023-08-30T01:27:13;99310.89;;;14.34;89.35
67987;BME280;54767;53.800;15.956;2023-08-30T01:29:44;99305.54;;;14.37;89.49
67987;BME280;54767;53.800;15.956;2023-08-30T01:32:12;99303.72;;;14.39;89.23
67987;BME280;54767;53.800;15.956;2023-08-30T01:34:41;99304.34;;;14.36;89.08
67987;BME280;54767;53.800;15.956;2023-08-30T01:37:09;99300.75;;;14.32;89.07
67987;BME280;54767;53.800;15.956;2023-08-30T01:39:36;99307.19;;;14.28;89.02
67987;BME280;54767;53.800;15.956;2023-08-30T01:42:05;99310.61;;;14.26;88.96
67987;BME280;54767;53.800;15.956;2023-08-30T01:44:32;99315.12;;;14.21;89.05
67987;BME280;54767;53.800;15.956;2023-08-30T01:47:00;99312.33;;;14.15;88.91
67987;BME280;54767;53.800;15.956;2023-08-30T01:49:29;99309.13;;;14.09;88.78
67987;BME280;54767;53.800;15.956;2023-08-30T01:51:58;99313.83;;;14.05;89.13
67987;BME280;54767;53.800;15.956;2023-08-30T01:54:27;99312.22;;;13.99;89.07
67987;BME280;54767;53.800;15.956;2023-08-30T01:56:55;99309.20;;;13.94;89.14
67987;BME280;54767;53.800;15.956;2023-08-30T01:59:24;99308.75;;;13.90;89.42
67987;BME280;54767;53.800;15.956;2023-08-30T02:01:51;99307.81;;;13.86;89.47
67987;BME280;54767;53.800;15.956;2023-08-30T02:04:18;99305.05;;;13.84;89.58
67987;BME280;54767;53.800;15.956;2023-08-30T02:06:54;99305.61;;;13.83;89.67
67987;BME280;54767;53.800;15.956;2023-08-30T02:09:28;99302.68;;;13.81;89.81
67987;BME280;54767;53.800;15.956;2023-08-30T02:11:59;99300.73;;;13.81;89.93
67987;BME280;54767;53.800;15.956;2023-08-30T02:14:28;99299.85;;;13.81;89.93
67987;BME280;54767;53.800;15.956;2023-08-30T02:16:55;99305.12;;;13.82;90.01
67987;BME280;54767;53.800;15.956;2023-08-30T02:19:22;99304.96;;;13.81;89.98
67987;BME280;54767;53.800;15.956;2023-08-30T02:21:49;99310.95;;;13.81;90.03
67987;BME280;54767;53.800;15.956;2023-08-30T02:24:16;99309.73;;;13.80;90.14
67987;BME280;54767;53.800;15.956;2023-08-30T02:26:43;99310.05;;;13.81;90.06
67987;BME280;54767;53.800;15.956;2023-08-30T02:29:10;99307.04;;;13.82;89.87
67987;BME280;54767;53.800;15.956;2023-08-30T02:31:36;99305.08;;;13.83;90.08
67987;BME280;54767;53.800;15.956;2023-08-30T02:34:03;99304.36;;;13.83;89.90
67987;BME280;54767;53.800;15.956;2023-08-30T02:36:30;99305.55;;;13.85;89.91
67987;BME280;54767;53.800;15.956;2023-08-30T02:38:57;99310.30;;;13.85;89.92
67987;BME280;54767;53.800;15.956;2023-08-30T02:41:24;99306.55;;;13.87;89.86
67987;BME280;54767;53.800;15.956;2023-08-30T02:43:51;99305.56;;;13.90;89.96
67987;BME280;54767;53.800;15.956;2023-08-30T02:46:17;99307.99;;;13.92;89.79
67987;BME280;54767;53.800;15.956;2023-08-30T02:48:44;99298.52;;;13.91;89.58
67987;BME280;54767;53.800;15.956;2023-08-30T02:51:11;99298.52;;;13.91;89.68
67987;BME280;54767;53.800;15.956;2023-08-30T02:53:38;99294.46;;;13.91;89.55
67987;BME280;54767;53.800;15.956;2023-08-30T02:56:05;99296.36;;;13.93;89.32
67987;BME280;54767;53.800;15.956;2023-08-30T02:58:32;99299.64;;;13.95;89.24
67987;BME280;54767;53.800;15.956;2023-08-30T03:01:01;99291.31;;;13.98;89.20
67987;BME280;54767;53.800;15.956;2023-08-30T03:03:29;99292.69;;;13.99;89.05
67987;BME280;54767;53.800;15.956;2023-08-30T03:05:56;99292.81;;;14.01;89.23
67987;BME280;54767;53.800;15.956;2023-08-30T03:08:22;99286.77;;;14.03;89.14
67987;BME280;54767;53.800;15.956;2023-08-30T03:10:49;99286.39;;;14.04;88.95
67987;BME280;54767;53.800;15.956;2023-08-30T03:13:16;99281.73;;;14.07;89.02
67987;BME280;54767;53.800;15.956;2023-08-30T03:15:43;99274.40;;;14.11;89.02
67987;BME280;54767;53.800;15.956;2023-08-30T03:18:10;99270.97;;;14.14;88.85
67987;BME280;54767;53.800;15.956;2023-08-30T03:20:38;99274.84;;;14.14;88.42
67987;BME280;54767;53.800;15.956;2023-08-30T03:23:05;99273.82;;;14.13;88.50
67987;BME280;54767;53.800;15.956;2023-08-30T03:25:32;99278.35;;;14.15;88.66
67987;BME280;54767;53.800;15.956;2023-08-30T03:27:59;99288.34;;;14.17;88.49
67987;BME280;54767;53.800;15.956;2023-08-30T03:30:25;99291.98;;;14.18;88.41
67987;BME280;54767;53.800;15.956;2023-08-30T03:32:52;99290.85;;;14.21;88.59
67987;BME280;54767;53.800;15.956;2023-08-30T03:35:19;99294.27;;;14.24;88.46
67987;BME280;54767;53.800;15.956;2023-08-30T03:37:48;99292.70;;;14.30;88.62
67987;BME280;54767;53.800;15.956;2023-08-30T03:40:15;99288.91;;;14.33;88.47
67987;BME280;54767;53.800;15.956;2023-08-30T03:42:42;99294.38;;;14.40;88.60
67987;BME280;54767;53.800;15.956;2023-08-30T03:45:09;99297.85;;;14.47;88.55
67987;BME280;54767;53.800;15.956;2023-08-30T03:47:36;99304.74;;;14.53;88.51
67987;BME280;54767;53.800;15.956;2023-08-30T03:50:03;99308.30;;;14.58;88.30
67987;BME280;54767;53.800;15.956;2023-08-30T03:52:30;99317.17;;;14.62;88.09
67987;BME280;54767;53.800;15.956;2023-08-30T03:54:57;99314.80;;;14.64;88.01
67987;BME280;54767;53.800;15.956;2023-08-30T03:57:24;99320.36;;;14.67;87.86
67987;BME280;54767;53.800;15.956;2023-08-30T03:59:51;99317.59;;;14.72;87.79
67987;BME280;54767;53.800;15.956;2023-08-30T04:02:17;99314.99;;;14.76;87.75
67987;BME280;54767;53.800;15.956;2023-08-30T04:04:47;99293.95;;;14.79;87.67
67987;BME280;54767;53.800;15.956;2023-08-30T04:07:15;99292.83;;;14.81;87.81
67987;BME280;54767;53.800;15.956;2023-08-30T04:09:42;99294.16;;;14.83;87.54
67987;BME280;54767;53.800;15.956;2023-08-30T04:12:09;99301.17;;;14.85;87.51
67987;BME280;54767;53.800;15.956;2023-08-30T04:14:35;99303.55;;;14.88;87.50
67987;BME280;54767;53.800;15.956;2023-08-30T04:17:02;99302.89;;;14.91;87.20
67987;BME280;54767;53.800;15.956;2023-08-30T04:19:29;99301.24;;;14.94;87.15
67987;BME280;54767;53.800;15.956;2023-08-30T04:21:56;99300.44;;;14.97;87.09
67987;BME280;54767;53.800;15.956;2023-08-30T04:24:23;99296.23;;;14.97;86.94
67987;BME280;54767;53.800;15.956;2023-08-30T04:26:50;99292.74;;;14.95;86.90
67987;BME280;54767;53.800;15.956;2023-08-30T04:29:19;99290.48;;;14.95;86.64
67987;BME280;54767;53.800;15.956;2023-08-30T04:31:46;99289.95;;;14.94;86.60
67987;BME280;54767;53.800;15.956;2023-08-30T04:34:13;99290.88;;;14.94;86.40
67987;BME280;54767;53.800;15.956;2023-08-30T04:36:39;99295.11;;;14.93;86.35
67987;BME280;54767;53.800;15.956;2023-08-30T04:39:06;99299.31;;;14.94;86.52
67987;BME280;54767;53.800;15.956;2023-08-30T04:41:33;99300.89;;;14.94;86.44
67987;BME280;54767;53.800;15.956;2023-08-30T04:44:00;99301.55;;;14.95;86.50
67987;BME280;54767;53.800;15.956;2023-08-30T04:46:27;99302.38;;;14.97;86.53
67987;BME280;54767;53.800;15.956;2023-08-30T04:48:54;99299.62;;;15.01;86.41
67987;BME280;54767;53.800;15.956;2023-08-30T04:51:20;99299.73;;;15.03;86.34
67987;BME280;54767;53.800;15.956;2023-08-30T04:53:47;99295.24;;;15.06;86.29
67987;BME280;54767;53.800;15.956;2023-08-30T04:56:15;99300.13;;;15.07;86.30
67987;BME280;54767;53.800;15.956;2023-08-30T04:58:44;99302.75;;;15.08;86.33
67987;BME280;54767;53.800;15.956;2023-08-30T05:01:11;99302.87;;;15.09;86.22
67987;BME280;54767;53.800;15.956;2023-08-30T05:03:40;99305.79;;;15.11;86.24
67987;BME280;54767;53.800;15.956;2023-08-30T05:06:07;99304.70;;;15.13;86.00
67987;BME280;54767;53.800;15.956;2023-08-30T05:08:34;99300.58;;;15.15;85.94
67987;BME280;54767;53.800;15.956;2023-08-30T05:11:00;99298.79;;;15.16;86.03
67987;BME280;54767;53.800;15.956;2023-08-30T05:13:29;99296.67;;;15.16;85.82
67987;BME280;54767;53.800;15.956;2023-08-30T05:15:56;99293.87;;;15.15;85.88
67987;BME280;54767;53.800;15.956;2023-08-30T05:18:23;99289.30;;;15.15;85.89
67987;BME280;54767;53.800;15.956;2023-08-30T05:20:50;99289.30;;;15.15;85.89
67987;BME280;54767;53.800;15.956;2023-08-30T05:23:16;99293.46;;;15.12;85.55
67987;BME280;54767;53.800;15.956;2023-08-30T05:25:43;99292.55;;;15.07;85.47
67987;BME280;54767;53.800;15.956;2023-08-30T05:28:10;99287.17;;;15.05;85.64
67987;BME280;54767;53.800;15.956;2023-08-30T05:30:41;99290.52;;;15.05;85.64
67987;BME280;54767;53.800;15.956;2023-08-30T05:33:08;99289.77;;;15.06;85.81
67987;BME280;54767;53.800;15.956;2023-08-30T05:35:35;99294.92;;;15.10;85.95
67987;BME280;54767;53.800;15.956;2023-08-30T05:38:01;99294.44;;;15.14;86.11
67987;BME280;54767;53.800;15.956;2023-08-30T05:40:28;99294.55;;;15.17;86.02
67987;BME280;54767;53.800;15.956;2023-08-30T05:42:55;99297.90;;;15.16;85.81
67987;BME280;54767;53.800;15.956;2023-08-30T05:45:22;99301.99;;;15.15;85.78
67987;BME280;54767;53.800;15.956;2023-08-30T05:47:49;99298.64;;;15.15;85.81
67987;BME280;54767;53.800;15.956;2023-08-30T05:50:16;99304.42;;;15.17;85.89
67987;BME280;54767;53.800;15.956;2023-08-30T05:52:43;99311.61;;;15.18;85.78
67987;BME280;54767;53.800;15.956;2023-08-30T05:55:11;99315.09;;;15.19;85.81
67987;BME280;54767;53.800;15.956;2023-08-30T05:57:38;99317.08;;;15.23;85.84
67987;BME280;54767;53.800;15.956;2023-08-30T06:00:05;99326.48;;;15.27;85.81
67987;BME280;54767;53.800;15.956;2023-08-30T06:02:32;99325.15;;;15.30;85.81
67987;BME280;54767;53.800;15.956;2023-08-30T06:04:59;99328.77;;;15.32;85.75
67987;BME280;54767;53.800;15.956;2023-08-30T06:07:26;99326.27;;;15.33;85.66
67987;BME280;54767;53.800;15.956;2023-08-30T06:09:53;99327.10;;;15.34;85.46
67987;BME280;54767;53.800;15.956;2023-08-30T06:12:24;99329.67;;;15.37;85.35
67987;BME280;54767;53.800;15.956;2023-08-30T06:14:52;99325.55;;;15.38;85.19
67987;BME280;54767;53.800;15.956;2023-08-30T06:17:19;99327.81;;;15.40;85.42
67987;BME280;54767;53.800;15.956;2023-08-30T06:19:46;99325.46;;;15.42;85.52
67987;BME280;54767;53.800;15.956;2023-08-30T06:22:13;99327.73;;;15.43;85.32
67987;BME280;54767;53.800;15.956;2023-08-30T06:24:40;99330.36;;;15.43;85.23
67987;BME280;54767;53.800;15.956;2023-08-30T06:27:07;99332.97;;;15.44;85.16
67987;BME280;54767;53.800;15.956;2023-08-30T06:29:34;99330.99;;;15.45;85.23
67987;BME280;54767;53.800;15.956;2023-08-30T06:32:01;99334.49;;;15.46;85.10
67987;BME280;54767;53.800;15.956;2023-08-30T06:34:27;99335.35;;;15.47;85.16
67987;BME280;54767;53.800;15.956;2023-08-30T06:36:54;99333.39;;;15.47;85.13
67987;BME280;54767;53.800;15.956;2023-08-30T06:39:21;99335.17;;;15.47;85.10
67987;BME280;54767;53.800;15.956;2023-08-30T06:41:49;99332.53;;;15.47;85.12
67987;BME280;54767;53.800;15.956;2023-08-30T06:44:16;99332.16;;;15.47;84.95
67987;BME280;54767;53.800;15.956;2023-08-30T06:46:43;99331.98;;;15.48;85.06
67987;BME280;54767;53.800;15.956;2023-08-30T06:49:10;99335.09;;;15.49;85.07
67987;BME280;54767;53.800;15.956;2023-08-30T06:51:38;99334.34;;;15.51;85.00
67987;BME280;54767;53.800;15.956;2023-08-30T06:54:05;99332.76;;;15.51;85.14
67987;BME280;54767;53.800;15.956;2023-08-30T06:56:31;99332.59;;;15.50;85.21
67987;BME280;54767;53.800;15.956;2023-08-30T06:58:58;99329.96;;;15.50;85.27
67987;BME280;54767;53.800;15.956;2023-08-30T07:01:25;99331.24;;;15.49;85.15
67987;BME280;54767;53.800;15.956;2023-08-30T07:03:52;99330.52;;;15.49;85.33
67987;BME280;54767;53.800;15.956;2023-08-30T07:06:19;99334.92;;;15.49;85.30
67987;BME280;54767;53.800;15.956;2023-08-30T07:08:46;99338.58;;;15.50;85.22
67987;BME280;54767;53.800;15.956;2023-08-30T07:11:13;99339.30;;;15.50;85.36
67987;BME280;54767;53.800;15.956;2023-08-30T07:13:58;99341.48;;;15.53;85.39
67987;BME280;54767;53.800;15.956;2023-08-30T07:16:25;99343.90;;;15.55;85.36
67987;BME280;54767;53.800;15.956;2023-08-30T07:18:52;99345.33;;;15.54;85.43
67987;BME280;54767;53.800;15.956;2023-08-30T07:21:19;99344.70;;;15.52;85.46
67987;BME280;54767;53.800;15.956;2023-08-30T07:23:46;99345.84;;;15.49;85.45
67987;BME280;54767;53.800;15.956;2023-08-30T07:26:14;99341.36;;;15.46;85.44
67987;BME280;54767;53.800;15.956;2023-08-30T07:28:41;99345.46;;;15.45;85.60
67987;BME280;54767;53.800;15.956;2023-08-30T07:31:08;99343.73;;;15.44;85.71
67987;BME280;54767;53.800;15.956;2023-08-30T07:33:36;99344.29;;;15.43;85.84
67987;BME280;54767;53.800;15.956;2023-08-30T07:36:03;99348.59;;;15.42;85.75
67987;BME280;54767;53.800;15.956;2023-08-30T07:38:30;99352.17;;;15.39;85.76
67987;BME280;54767;53.800;15.956;2023-08-30T07:40:59;99352.17;;;15.39;85.85
67987;BME280;54767;53.800;15.956;2023-08-30T07:43:26;99352.17;;;15.39;85.93
67987;BME280;54767;53.800;15.956;2023-08-30T07:45:53;99349.91;;;15.44;86.07
67987;BME280;54767;53.800;15.956;2023-08-30T07:48:20;99347.17;;;15.46;86.13
67987;BME280;54767;53.800;15.956;2023-08-30T07:50:47;99340.20;;;15.50;86.13
67987;BME280;54767;53.800;15.956;2023-08-30T07:53:14;99344.29;;;15.54;86.12
67987;BME280;54767;53.800;15.956;2023-08-30T07:55:41;99341.16;;;15.57;86.06
67987;BME280;54767;53.800;15.956;2023-08-30T07:58:08;99342.45;;;15.62;86.32
67987;BME280;54767;53.800;15.956;2023-08-30T08:00:39;99343.92;;;15.65;86.19
67987;BME280;54767;53.800;15.956;2023-08-30T08:03:06;99346.62;;;15.70;86.36
67987;BME280;54767;53.800;15.956;2023-08-30T08:05:35;99345.06;;;15.75;86.38
67987;BME280;54767;53.800;15.956;2023-08-30T08:08:03;99347.56;;;15.78;86.49
67987;BME280;54767;53.800;15.956;2023-08-30T08:10:34;99355.38;;;15.83;86.48
67987;BME280;54767;53.800;15.956;2023-08-30T08:13:01;99355.67;;;15.84;86.29
67987;BME280;54767;53.800;15.956;2023-08-30T08:15:28;99349.91;;;15.88;86.39
67987;BME280;54767;53.800;15.956;2023-08-30T08:17:57;99344.84;;;15.91;86.38
67987;BME280;54767;53.800;15.956;2023-08-30T08:20:24;99352.41;;;15.92;86.03
67987;BME280;54767;53.800;15.956;2023-08-30T08:22:50;99351.86;;;15.93;86.03
67987;BME280;54767;53.800;15.956;2023-08-30T08:25:18;99351.06;;;15.95;86.19
67987;BME280;54767;53.800;15.956;2023-08-30T08:27:45;99349.70;;;15.98;86.14
67987;BME280;54767;53.800;15.956;2023-08-30T08:30:12;99348.91;;;16.01;86.12
67987;BME280;54767;53.800;15.956;2023-08-30T08:32:39;99345.91;;;16.07;86.22
67987;BME280;54767;53.800;15.956;2023-08-30T08:35:06;99348.60;;;16.11;86.13
67987;BME280;54767;53.800;15.956;2023-08-30T08:37:33;99347.06;;;16.09;86.06
67987;BME280;54767;53.800;15.956;2023-08-30T08:40:01;99352.17;;;16.09;86.15
67987;BME280;54767;53.800;15.956;2023-08-30T08:42:35;99354.10;;;16.10;85.95
67987;BME280;54767;53.800;15.956;2023-08-30T10:28:04;99358.88;;;17.02;82.97
67987;BME280;54767;53.800;15.956;2023-08-30T10:30:45;99357.74;;;17.04;82.63
67987;BME280;54767;53.800;15.956;2023-08-30T10:33:14;99364.73;;;17.06;82.86
67987;BME280;54767;53.800;15.956;2023-08-30T10:35:49;99366.71;;;17.10;82.87
67987;BME280;54767;53.800;15.956;2023-08-30T10:38:28;99370.23;;;17.14;82.80
67987;BME280;54767;53.800;15.956;2023-08-30T10:41:06;99360.91;;;17.18;82.69
67987;BME280;54767;53.800;15.956;2023-08-30T10:43:35;99358.34;;;17.21;82.36
67987;BME280;54767;53.800;15.956;2023-08-30T10:46:06;99354.34;;;17.23;82.15
67987;BME280;54767;53.800;15.956;2023-08-30T10:48:41;99358.20;;;17.24;82.26
67987;BME280;54767;53.800;15.956;2023-08-30T10:51:41;99360.46;;;17.25;82.27
67987;BME280;54767;53.800;15.956;2023-08-30T10:55:04;99357.63;;;17.25;82.00
67987;BME280;54767;53.800;15.956;2023-08-30T10:57:41;99360.23;;;17.26;82.02
67987;BME280;54767;53.800;15.956;2023-08-30T11:00:31;99357.65;;;17.29;82.05
67987;BME280;54767;53.800;15.956;2023-08-30T11:03:20;99355.18;;;17.33;81.90
67987;BME280;54767;53.800;15.956;2023-08-30T11:05:48;99362.00;;;17.36;81.89
67987;BME280;54767;53.800;15.956;2023-08-30T11:08:37;99360.71;;;17.36;81.33
67987;BME280;54767;53.800;15.956;2023-08-30T11:11:19;99362.05;;;17.34;81.31
67987;BME280;54767;53.800;15.956;2023-08-30T11:14:09;99359.64;;;17.32;81.19
67987;BME280;54767;53.800;15.956;2023-08-30T11:16:38;99365.66;;;17.33;80.79
67987;BME280;54767;53.800;15.956;2023-08-30T11:19:08;99366.84;;;17.34;80.82
67987;BME280;54767;53.800;15.956;2023-08-30T11:21:39;99365.55;;;17.35;80.83
67987;BME280;54767;53.800;15.956;2023-08-30T11:24:08;99364.99;;;17.36;80.73
67987;BME280;54767;53.800;15.956;2023-08-30T11:26:36;99360.46;;;17.34;80.47
67987;BME280;54767;53.800;15.956;2023-08-30T11:29:11;99360.23;;;17.31;80.12
67987;BME280;54767;53.800;15.956;2023-08-30T11:31:57;99359.40;;;17.29;79.98
67987;BME280;54767;53.800;15.956;2023-08-30T11:34:28;99357.02;;;17.27;79.54
67987;BME280;54767;53.800;15.956;2023-08-30T11:37:01;99361.63;;;17.27;79.67
67987;BME280;54767;53.800;15.956;2023-08-30T11:39:30;99360.17;;;17.28;79.92
67987;BME280;54767;53.800;15.956;2023-08-30T11:42:25;99357.98;;;17.29;80.15
67987;BME280;54767;53.800;15.956;2023-08-30T11:44:54;99359.76;;;17.30;79.73
67987;BME280;54767;53.800;15.956;2023-08-30T11:47:39;99362.91;;;17.30;79.98
67987;BME280;54767;53.800;15.956;2023-08-30T11:50:11;99355.95;;;17.32;79.58
67987;BME280;54767;53.800;15.956;2023-08-30T11:52:43;99357.73;;;17.31;79.68
67987;BME280;54767;53.800;15.956;2023-08-30T11:55:14;99359.40;;;17.34;79.86
67987;BME280;54767;53.800;15.956;2023-08-30T11:57:44;99359.70;;;17.35;79.74
67987;BME280;54767;53.800;15.956;2023-08-30T12:00:14;99362.56;;;17.34;79.65
67987;BME280;54767;53.800;15.956;2023-08-30T12:02:42;99362.77;;;17.34;79.24
67987;BME280;54767;53.800;15.956;2023-08-30T12:05:13;99361.04;;;17.32;79.13
67987;BME280;54767;53.800;15.956;2023-08-30T12:07:42;99365.45;;;17.33;79.26
67987;BME280;54767;53.800;15.956;2023-08-30T12:10:12;99362.16;;;17.31;79.33
67987;BME280;54767;53.800;15.956;2023-08-30T12:12:45;99361.88;;;17.34;79.46
67987;BME280;54767;53.800;15.956;2023-08-30T12:15:14;99362.53;;;17.35;79.28
67987;BME280;54767;53.800;15.956;2023-08-30T12:17:44;99362.35;;;17.35;79.57
67987;BME280;54767;53.800;15.956;2023-08-30T12:20:17;99360.86;;;17.37;79.46
67987;BME280;54767;53.800;15.956;2023-08-30T12:22:53;99362.88;;;17.40;79.39
67987;BME280;54767;53.800;15.956;2023-08-30T12:25:39;99366.46;;;17.44;79.67
67987;BME280;54767;53.800;15.956;2023-08-30T12:28:22;99366.48;;;17.48;79.49
67987;BME280;54767;53.800;15.956;2023-08-30T12:30:51;99366.36;;;17.50;79.42
67987;BME280;54767;53.800;15.956;2023-08-30T12:33:31;99362.58;;;17.52;79.23
67987;BME280;54767;53.800;15.956;2023-08-30T12:36:01;99363.64;;;17.52;79.07
67987;BME280;54767;53.800;15.956;2023-08-30T12:38:30;99363.95;;;17.53;79.20
67987;BME280;54767;53.800;15.956;2023-08-30T12:40:58;99360.16;;;17.55;78.98
67987;BME280;54767;53.800;15.956;2023-08-30T12:43:52;99362.15;;;17.54;78.21
67987;BME280;54767;53.800;15.956;2023-08-30T12:46:20;99363.56;;;17.54;78.84
67987;BME280;54767;53.800;15.956;2023-08-30T12:48:48;99364.71;;;17.56;78.84
67987;BME280;54767;53.800;15.956;2023-08-30T12:51:17;99368.20;;;17.57;79.04
67987;BME280;54767;53.800;15.956;2023-08-30T12:53:45;99364.83;;;17.57;79.07
67987;BME280;54767;53.800;15.956;2023-08-30T12:56:24;99367.44;;;17.58;79.04
67987;BME280;54767;53.800;15.956;2023-08-30T12:59:08;99374.34;;;17.63;78.92
67987;BME280;54767;53.800;15.956;2023-08-30T13:01:40;99376.52;;;17.66;79.25
67987;BME280;54767;53.800;15.956;2023-08-30T13:04:12;99372.55;;;17.68;79.20
67987;BME280;54767;53.800;15.956;2023-08-30T13:11:21;99368.91;;;17.66;79.08
67987;BME280;54767;53.800;15.956;2023-08-30T13:13:49;99368.38;;;17.66;78.77
67987;BME280;54767;53.800;15.956;2023-08-30T13:16:18;99369.06;;;17.66;78.59
67987;BME280;54767;53.800;15.956;2023-08-30T13:18:50;99366.46;;;17.65;78.12
67987;BME280;54767;53.800;15.956;2023-08-30T13:21:20;99367.45;;;17.62;77.88
67987;BME280;54767;53.800;15.956;2023-08-30T13:24:06;99369.11;;;17.56;77.71
67987;BME280;54767;53.800;15.956;2023-08-30T13:27:00;99368.91;;;17.48;77.62
67987;BME280;54767;53.800;15.956;2023-08-30T13:29:29;99372.10;;;17.44;78.03
67987;BME280;54767;53.800;15.956;2023-08-30T13:31:57;99370.57;;;17.43;78.10
67987;BME280;54767;53.800;15.956;2023-08-30T13:34:26;99374.91;;;17.40;78.15
67987;BME280;54767;53.800;15.956;2023-08-30T13:36:55;99372.95;;;17.40;78.46
67987;BME280;54767;53.800;15.956;2023-08-30T13:39:23;99372.17;;;17.42;78.63
67987;BME280;54767;53.800;15.956;2023-08-30T13:47:26;99384.48;;;17.30;78.78
67987;BME280;54767;53.800;15.956;2023-08-30T13:50:23;99386.56;;;17.17;78.65
67987;BME280;54767;53.800;15.956;2023-08-30T13:53:43;99384.99;;;17.08;79.15
67987;BME280;54767;53.800;15.956;2023-08-30T13:56:14;99383.61;;;17.02;79.05
67987;BME280;54767;53.800;15.956;2023-08-30T13:58:42;99376.80;;;16.91;79.19
67987;BME280;54767;53.800;15.956;2023-08-30T14:01:16;99377.48;;;16.87;79.22
67987;BME280;54767;53.800;15.956;2023-08-30T14:03:48;99378.48;;;16.84;79.40
67987;BME280;54767;53.800;15.956;2023-08-30T14:06:17;99382.11;;;16.81;79.40
67987;BME280;54767;53.800;15.956;2023-08-30T14:09:33;99384.04;;;16.77;79.45
67987;BME280;54767;53.800;15.956;2023-08-30T14:16:41;99375.48;;;16.49;79.23
67987;BME280;54767;53.800;15.956;2023-08-30T14:19:10;99372.52;;;16.43;79.87
67987;BME280;54767;53.800;15.956;2023-08-30T14:21:42;99364.14;;;16.40;80.05
67987;BME280;54767;53.800;15.956;2023-08-30T17:32:24;99379.81;;;16.77;79.57
67987;BME280;54767;53.800;15.956;2023-08-30T17:38:18;99387.12;;;16.74;79.80
67987;BME280;54767;53.800;15.956;2023-08-30T17:40:55;99385.40;;;16.73;79.90
67987;BME280;54767;53.800;15.956;2023-08-30T17:43:24;99386.27;;;16.73;79.80
67987;BME280;54767;53.800;15.956;2023-08-30T17:46:50;99385.55;;;16.73;79.82
67987;BME280;54767;53.800;15.956;2023-08-30T17:50:24;99387.50;;;16.73;79.83
67987;BME280;54767;53.800;15.956;2023-08-30T17:53:03;99394.11;;;16.71;79.79
67987;BME280;54767;53.800;15.956;2023-08-30T17:56:10;99393.24;;;16.71;79.94
67987;BME280;54767;53.800;15.956;2023-08-30T18:00:00;99387.59;;;16.71;79.94
67987;BME280;54767;53.800;15.956;2023-08-30T18:03:10;99388.50;;;16.70;79.96
67987;BME280;54767;53.800;15.956;2023-08-30T18:15:11;99387.06;;;16.66;80.14
67987;BME280;54767;53.800;15.956;2023-08-30T18:17:46;99385.94;;;16.68;80.11
67987;BME280;54767;53.800;15.956;2023-08-30T18:20:20;99389.41;;;16.69;80.18
67987;BME280;54767;53.800;15.956;2023-08-30T18:22:48;99386.73;;;16.70;80.16
67987;BME280;54767;53.800;15.956;2023-08-30T18:25:17;99385.00;;;16.69;80.14
67987;BME280;54767;53.800;15.956;2023-08-30T18:27:45;99384.04;;;16.66;80.25
67987;BME280;54767;53.800;15.956;2023-08-30T18:30:23;99388.43;;;16.67;80.26
67987;BME280;54767;53.800;15.956;2023-08-30T18:32:51;99389.26;;;16.68;80.19
67987;BME280;54767;53.800;15.956;2023-08-30T18:35:58;99388.53;;;16.69;80.25
67987;BME280;54767;53.800;15.956;2023-08-30T18:38:45;99388.88;;;16.69;80.29